Terminal Aerodrome Forecast
Issued by NWS

Home | Current Version | Previous Version | Text Only | Print | Product List | Glossary On
Versions: 1 2 3 4 5 6 7 8 9 10 11 12 13 14 15 16
000
FTUS41 KBOX 182335
TAFBAF
TAF
KBAF 182335Z 1900/1924 20006KT P6SM BKN250
     FM190900 26005KT P6SM FEW090
     FM191200 32006KT P6SM FEW250
     FM191500 33010G18KT P6SM SKC
     FM191800 34014G26KT P6SM SKC
     FM192300 35009KT P6SM SKC=

USA.gov is the U.S. government's official web portal to all federal, state and local government web resources and services.